createdAt,value
2023-05-08T00:01:56.601Z,15.10
2023-05-08T00:04:23.259Z,15.10
2023-05-08T00:06:51.455Z,15.20
2023-05-08T00:09:18.126Z,15.20
2023-05-08T00:11:44.693Z,15.20
2023-05-08T00:14:11.274Z,15.20
2023-05-08T00:16:37.891Z,15.30
2023-05-08T00:19:04.566Z,15.20
2023-05-08T00:21:31.242Z,15.20
2023-05-08T00:23:57.849Z,15.20
2023-05-08T00:26:24.469Z,15.20
2023-05-08T00:28:51.068Z,15.20
2023-05-08T00:31:18.154Z,15.20
2023-05-08T00:33:44.789Z,15.10
2023-05-08T00:36:12.336Z,15.10
2023-05-08T00:38:38.902Z,15.10
2023-05-08T00:41:05.534Z,15.10
2023-05-08T00:43:33.489Z,15.10
2023-05-08T00:46:01.694Z,15.10
2023-05-08T00:48:34.753Z,15.20
2023-05-08T00:51:04.834Z,15.20
2023-05-08T00:53:35.761Z,15.10
2023-05-08T00:56:02.711Z,15.10
2023-05-08T00:58:32.232Z,15.10
2023-05-08T01:00:59.573Z,15.20
2023-05-08T01:03:26.767Z,15.10
2023-05-08T01:05:54.560Z,15.10
2023-05-08T01:08:21.255Z,15.10
2023-05-08T01:11:11.761Z,15.10
2023-05-08T01:14:32.175Z,15.10
2023-05-08T01:17:12.124Z,15.10
2023-05-08T01:19:55.335Z,15.20
2023-05-08T01:22:46.359Z,15.20
2023-05-08T01:25:24.713Z,15.20
2023-05-08T01:28:21.764Z,15.10
2023-05-08T01:31:21.209Z,15.10
2023-05-08T01:34:08.923Z,15.10
2023-05-08T01:36:51.681Z,15.00
2023-05-08T01:39:22.404Z,15.00
2023-05-08T01:42:02.933Z,15.00
2023-05-08T01:44:37.277Z,15.00
2023-05-08T01:47:09.662Z,15.00
2023-05-08T01:49:44.814Z,14.90
2023-05-08T01:52:22.296Z,14.90
2023-05-08T01:55:03.208Z,14.80
2023-05-08T01:57:33.255Z,14.90
2023-05-08T02:00:02.501Z,14.90
2023-05-08T02:02:37.989Z,14.80
2023-05-08T02:05:08.023Z,14.80
2023-05-08T02:07:37.905Z,14.80
2023-05-08T02:10:06.137Z,14.80
2023-05-08T02:12:34.083Z,14.90
2023-05-08T02:15:03.421Z,14.80
2023-05-08T02:17:31.469Z,14.80
2023-05-08T02:20:00.003Z,14.80
2023-05-08T02:22:28.065Z,14.80
2023-05-08T02:24:56.384Z,14.80
2023-05-08T02:27:25.474Z,14.80
2023-05-08T02:29:53.365Z,14.80
2023-05-08T02:32:21.905Z,14.70
2023-05-08T02:35:01.843Z,14.70
2023-05-08T02:37:30.872Z,14.80
2023-05-08T02:39:59.062Z,14.70
2023-05-08T02:42:26.736Z,14.70
2023-05-08T02:44:53.415Z,14.70
2023-05-08T02:47:27.890Z,14.70
2023-05-08T02:50:03.532Z,14.60
2023-05-08T02:52:35.255Z,14.60
2023-05-08T02:55:07.799Z,14.70
2023-05-08T02:58:07.960Z,14.70
2023-05-08T03:00:48.900Z,14.70
2023-05-08T03:03:22.972Z,14.60
2023-05-08T03:05:58.669Z,14.60
2023-05-08T03:08:35.010Z,14.60
2023-05-08T03:11:09.413Z,14.60
2023-05-08T03:13:40.844Z,14.60
2023-05-08T03:16:13.268Z,14.50
2023-05-08T03:18:47.099Z,14.50
2023-05-08T03:21:18.059Z,14.50
2023-05-08T03:23:45.736Z,14.50
2023-05-08T03:26:18.132Z,14.50
2023-05-08T03:28:49.665Z,14.50
2023-05-08T03:31:21.339Z,14.50
2023-05-08T03:33:51.256Z,14.50
2023-05-08T03:36:18.347Z,14.40
2023-05-08T03:38:45.432Z,14.40
2023-05-08T03:41:13.123Z,14.40
2023-05-08T03:43:41.153Z,14.40
2023-05-08T03:46:08.824Z,14.40
2023-05-08T03:48:38.382Z,14.40
2023-05-08T03:51:06.338Z,14.40
2023-05-08T03:53:36.038Z,14.40
2023-05-08T03:56:03.782Z,14.40
2023-05-08T03:58:37.901Z,14.40
2023-05-08T04:01:25.685Z,14.50
2023-05-08T04:04:17.592Z,14.40
2023-05-08T04:07:03.925Z,14.40
2023-05-08T04:10:04.633Z,14.40
2023-05-08T04:12:55.668Z,14.40
2023-05-08T04:15:31.346Z,14.30
2023-05-08T04:18:04.972Z,14.30
2023-05-08T04:20:32.447Z,14.30
2023-05-08T04:23:00.250Z,14.30
2023-05-08T04:25:29.431Z,14.30
2023-05-08T04:27:57.522Z,14.30
2023-05-08T04:30:25.112Z,14.30
2023-05-08T04:32:52.487Z,14.30
2023-05-08T04:35:19.449Z,14.40
2023-05-08T04:37:47.129Z,14.30
2023-05-08T04:40:14.174Z,14.30
2023-05-08T04:42:43.489Z,14.40
2023-05-08T04:45:10.829Z,14.30
2023-05-08T04:47:37.690Z,14.20
2023-05-08T04:50:05.449Z,14.20
2023-05-08T04:52:33.520Z,14.30
2023-05-08T04:55:00.222Z,14.20
2023-05-08T04:57:27.510Z,14.30
2023-05-08T04:59:54.221Z,14.30
2023-05-08T05:02:21.095Z,14.30
2023-05-08T05:04:48.516Z,14.20
2023-05-08T05:07:15.766Z,14.20
2023-05-08T05:09:42.476Z,14.30
2023-05-08T05:12:09.609Z,14.20
2023-05-08T05:14:36.483Z,14.10
2023-05-08T05:17:03.235Z,14.10
2023-05-08T05:19:30.007Z,14.10
2023-05-08T05:21:56.711Z,14.10
2023-05-08T05:24:23.584Z,14.20
2023-05-08T05:26:50.318Z,14.20
2023-05-08T05:29:17.381Z,14.30
2023-05-08T05:31:44.249Z,14.20
2023-05-08T05:34:11.080Z,14.30
2023-05-08T05:36:37.812Z,14.20
2023-05-08T05:39:04.694Z,14.10
2023-05-08T05:41:39.300Z,14.00
2023-05-08T05:44:06.630Z,14.10
2023-05-08T05:46:33.316Z,14.10
2023-05-08T05:49:02.810Z,14.10
2023-05-08T05:51:29.606Z,14.20
2023-05-08T05:53:57.406Z,14.10
2023-05-08T05:56:26.043Z,14.20
2023-05-08T05:58:52.695Z,14.10
2023-05-08T06:01:19.707Z,14.00
2023-05-08T06:03:47.308Z,14.20
2023-05-08T06:06:14.031Z,14.10
2023-05-08T06:08:40.824Z,14.10
2023-05-08T06:13:50.727Z,14.10
2023-05-08T06:16:20.574Z,14.30
2023-05-08T06:18:47.594Z,14.20
2023-05-08T06:21:14.284Z,14.30
2023-05-08T06:23:42.784Z,14.40
2023-05-08T06:26:09.696Z,14.30
2023-05-08T06:28:36.295Z,14.40
2023-05-08T06:31:03.034Z,14.30
2023-05-08T06:33:29.931Z,14.30
2023-05-08T06:35:56.574Z,14.50
2023-05-08T06:38:23.163Z,14.40
2023-05-08T06:40:50.707Z,14.40
2023-05-08T06:43:17.351Z,14.40
2023-05-08T06:45:45.510Z,14.30
2023-05-08T06:48:12.165Z,14.40
2023-05-08T06:50:39.587Z,14.30
2023-05-08T06:53:07.222Z,14.30
2023-05-08T06:55:34.163Z,14.40
2023-05-08T06:58:00.808Z,14.40
2023-05-08T07:00:27.651Z,14.60
2023-05-08T07:02:54.371Z,14.60
2023-05-08T07:05:21.362Z,14.60
2023-05-08T07:07:48.032Z,14.70
2023-05-08T07:10:14.707Z,14.70
2023-05-08T07:12:41.391Z,14.60
2023-05-08T07:15:24.125Z,14.70
2023-05-08T07:17:52.628Z,14.70
2023-05-08T07:20:19.304Z,14.40
2023-05-08T07:22:46.469Z,14.50
2023-05-08T07:25:13.415Z,14.70
2023-05-08T07:27:40.980Z,14.80
2023-05-08T07:30:08.641Z,14.80
2023-05-08T07:32:35.854Z,14.90
2023-05-08T07:35:03.191Z,14.80
2023-05-08T07:37:29.876Z,14.80
2023-05-08T07:39:56.577Z,14.90
2023-05-08T07:42:23.385Z,14.80
2023-05-08T07:44:55.013Z,14.80
2023-05-08T07:47:22.795Z,14.90
2023-05-08T07:49:50.780Z,15.00
2023-05-08T07:52:17.789Z,14.90
2023-05-08T07:54:44.412Z,14.90
2023-05-08T07:57:11.561Z,14.90
2023-05-08T07:59:38.204Z,15.10
2023-05-08T08:02:04.884Z,15.20
2023-05-08T08:04:31.574Z,15.30
2023-05-08T08:06:58.319Z,15.30
2023-05-08T08:09:25.089Z,15.40
2023-05-08T08:11:51.696Z,15.20
2023-05-08T08:14:18.268Z,15.30
2023-05-08T08:16:44.992Z,15.40
2023-05-08T08:19:11.748Z,15.40
2023-05-08T08:21:44.903Z,15.30
2023-05-08T08:24:12.127Z,15.40
2023-05-08T08:26:38.765Z,15.40
2023-05-08T08:29:05.385Z,15.50
2023-05-08T08:31:32.095Z,15.50
2023-05-08T08:33:58.805Z,15.50
2023-05-08T08:36:25.485Z,15.30
2023-05-08T08:38:52.843Z,15.40
2023-05-08T08:41:19.573Z,15.50
2023-05-08T08:43:46.270Z,15.60
2023-05-08T08:46:17.105Z,15.60
2023-05-08T08:48:45.378Z,15.70
2023-05-08T08:51:32.840Z,15.70
2023-05-08T08:54:08.953Z,15.80
2023-05-08T08:56:39.344Z,15.90
2023-05-08T08:59:07.191Z,15.90
2023-05-08T09:01:40.831Z,15.90
2023-05-08T09:04:08.595Z,15.90
2023-05-08T09:06:39.130Z,16.00
2023-05-08T09:09:05.986Z,15.90
2023-05-08T09:11:32.996Z,15.90
2023-05-08T09:13:59.687Z,16.00
2023-05-08T09:16:28.286Z,16.10
2023-05-08T09:18:55.312Z,16.20
2023-05-08T09:21:23.202Z,16.30
2023-05-08T09:24:04.232Z,16.30
2023-05-08T09:26:39.704Z,16.30
2023-05-08T09:29:21.738Z,16.40
2023-05-08T09:31:50.778Z,16.50
2023-05-08T09:34:33.056Z,16.40
2023-05-08T09:37:05.676Z,16.50
2023-05-08T09:39:32.328Z,16.50
2023-05-08T09:42:03.683Z,16.50
2023-05-08T09:44:50.217Z,16.40
2023-05-08T09:47:18.681Z,16.40
2023-05-08T09:50:01.666Z,16.40
2023-05-08T09:52:33.006Z,16.40
2023-05-08T09:55:07.080Z,16.40
2023-05-08T09:57:38.183Z,16.40
2023-05-08T10:00:13.332Z,16.30
2023-05-08T10:02:41.979Z,16.40
2023-05-08T10:05:32.175Z,16.50
2023-05-08T10:08:17.200Z,16.60
2023-05-08T10:10:43.812Z,16.70
2023-05-08T10:13:10.519Z,16.90
2023-05-08T10:15:38.559Z,17.00
2023-05-08T10:18:07.219Z,17.00
2023-05-08T10:20:35.553Z,17.00
2023-05-08T10:23:04.022Z,17.00
2023-05-08T10:25:34.654Z,17.00
2023-05-08T10:28:18.291Z,17.00
2023-05-08T10:30:49.118Z,17.10
2023-05-08T10:33:25.375Z,17.30
2023-05-08T10:35:52.498Z,17.40
2023-05-08T10:38:19.660Z,17.50
2023-05-08T10:40:47.581Z,17.70
2023-05-08T10:43:15.264Z,17.70
2023-05-08T10:45:42.555Z,17.70
2023-05-08T10:48:41.244Z,17.90
2023-05-08T10:51:21.862Z,17.80
2023-05-08T10:53:57.053Z,17.70
2023-05-08T10:56:27.477Z,17.90
2023-05-08T10:58:59.080Z,18.00
2023-05-08T11:01:26.694Z,18.00
2023-05-08T11:03:55.911Z,18.00
2023-05-08T11:06:46.525Z,18.10
2023-05-08T11:09:21.793Z,18.20
2023-05-08T11:12:07.143Z,18.40
2023-05-08T11:14:36.720Z,18.50
2023-05-08T11:17:04.358Z,18.60
2023-05-08T11:19:31.202Z,18.50
2023-05-08T11:22:20.718Z,18.60
2023-05-08T11:24:54.177Z,18.70
2023-05-08T11:27:39.057Z,18.70
2023-05-08T11:30:23.159Z,18.70
2023-05-08T11:33:05.355Z,18.70
2023-05-08T11:35:49.746Z,18.70
2023-05-08T11:38:20.392Z,18.70
2023-05-08T11:41:03.179Z,18.70
2023-05-08T11:43:32.947Z,18.90
2023-05-08T11:46:01.367Z,18.90
2023-05-08T11:48:27.980Z,19.00
2023-05-08T11:50:54.596Z,19.10
2023-05-08T11:53:21.441Z,19.40
2023-05-08T11:55:53.691Z,19.30
2023-05-08T11:58:20.517Z,19.30
2023-05-08T12:00:48.320Z,19.60
2023-05-08T12:03:20.013Z,19.50
2023-05-08T12:05:47.641Z,19.40
2023-05-08T12:08:15.952Z,19.70
2023-05-08T12:10:53.682Z,19.50
2023-05-08T12:13:20.466Z,19.60
2023-05-08T12:15:48.506Z,19.70
2023-05-08T12:18:16.653Z,20.00
2023-05-08T12:20:51.154Z,19.90
2023-05-08T12:23:18.100Z,20.00
2023-05-08T12:25:45.013Z,20.30
2023-05-08T12:28:12.028Z,20.20
2023-05-08T12:30:38.795Z,20.40
2023-05-08T12:33:06.266Z,20.50
2023-05-08T12:35:33.517Z,20.30
2023-05-08T12:38:04.011Z,20.30
2023-05-08T12:40:33.999Z,20.40
2023-05-08T12:43:02.352Z,20.40
2023-05-08T12:45:33.069Z,20.10
2023-05-08T12:48:04.898Z,20.30
2023-05-08T12:50:39.880Z,20.30
2023-05-08T12:53:09.231Z,20.30
2023-05-08T12:55:37.926Z,20.60
2023-05-08T12:58:15.395Z,20.60
2023-05-08T13:00:51.773Z,20.40
2023-05-08T13:03:29.649Z,20.10
2023-05-08T13:05:58.256Z,20.10
2023-05-08T13:08:38.219Z,20.30
2023-05-08T13:11:06.459Z,20.10
2023-05-08T13:13:35.275Z,19.70
2023-05-08T13:16:06.865Z,19.90
2023-05-08T13:18:36.570Z,20.00
2023-05-08T13:21:03.601Z,20.10
2023-05-08T13:23:30.280Z,20.00
2023-05-08T13:25:57.137Z,20.10
2023-05-08T13:28:23.738Z,19.90
2023-05-08T13:30:50.360Z,19.60
2023-05-08T13:33:16.974Z,19.50
2023-05-08T13:35:43.657Z,19.60
2023-05-08T13:38:10.395Z,19.70
2023-05-08T13:40:37.090Z,19.70
2023-05-08T13:43:03.775Z,19.60
2023-05-08T13:45:31.131Z,19.40
2023-05-08T13:47:57.894Z,19.30
2023-05-08T13:50:24.651Z,19.80
2023-05-08T13:52:54.520Z,20.20
2023-05-08T13:55:22.760Z,20.20
2023-05-08T13:57:49.681Z,20.20
2023-05-08T14:00:16.762Z,20.20
2023-05-08T14:02:43.666Z,20.10
2023-05-08T14:05:10.667Z,20.10
2023-05-08T14:07:37.590Z,19.90
2023-05-08T14:10:05.005Z,20.00
2023-05-08T14:12:35.810Z,19.80
2023-05-08T14:15:05.706Z,19.80
2023-05-08T14:17:32.591Z,19.70
2023-05-08T14:19:59.553Z,19.80
2023-05-08T14:22:26.330Z,19.70
2023-05-08T14:24:53.102Z,19.50
2023-05-08T14:27:19.861Z,19.30
2023-05-08T14:29:46.567Z,19.40
2023-05-08T14:32:13.367Z,19.30
2023-05-08T14:34:40.151Z,19.40
2023-05-08T14:37:06.782Z,19.40
2023-05-08T14:39:33.445Z,19.40
2023-05-08T14:42:21.592Z,19.40
2023-05-08T14:44:48.479Z,19.30
2023-05-08T14:47:15.145Z,19.40
2023-05-08T14:49:41.725Z,19.50
2023-05-08T14:52:08.355Z,19.40
2023-05-08T14:54:35.285Z,19.40
2023-05-08T14:57:02.118Z,19.50
2023-05-08T14:59:28.772Z,19.30
2023-05-08T15:01:55.482Z,19.20
2023-05-08T15:04:22.235Z,19.10
2023-05-08T15:06:49.002Z,19.30
2023-05-08T15:09:16.695Z,19.20
2023-05-08T15:11:44.071Z,19.20
2023-05-08T15:14:10.861Z,19.20
2023-05-08T15:16:37.606Z,19.20
2023-05-08T15:19:04.310Z,19.00
2023-05-08T15:21:30.950Z,19.10
2023-05-08T15:23:57.630Z,19.20
2023-05-08T15:26:24.292Z,19.10
2023-05-08T15:28:50.963Z,19.30
2023-05-08T15:31:18.353Z,19.40
2023-05-08T15:33:45.570Z,19.30
2023-05-08T15:36:15.647Z,19.20
2023-05-08T15:38:42.846Z,19.20
2023-05-08T15:41:14.796Z,19.10
2023-05-08T15:43:42.348Z,19.00
2023-05-08T15:46:09.045Z,18.90
2023-05-08T15:48:35.740Z,18.90
2023-05-08T15:51:02.392Z,18.90
2023-05-08T15:53:29.076Z,19.00
2023-05-08T15:55:56.892Z,18.90
2023-05-08T15:58:23.808Z,18.90
2023-05-08T16:00:50.574Z,18.80
2023-05-08T16:03:17.728Z,18.90
2023-05-08T16:05:44.532Z,18.90
2023-05-08T16:08:12.878Z,18.90
2023-05-08T16:10:41.127Z,19.00
2023-05-08T16:13:08.247Z,19.00
2023-05-08T16:15:35.091Z,18.90
2023-05-08T16:18:02.093Z,19.00
2023-05-08T16:20:28.833Z,18.90
2023-05-08T16:22:55.886Z,18.90
2023-05-08T16:25:22.964Z,19.00
2023-05-08T16:27:49.696Z,19.10
2023-05-08T16:30:17.207Z,19.10
2023-05-08T16:32:47.145Z,19.10
2023-05-08T16:35:14.911Z,19.00
2023-05-08T16:37:42.070Z,19.10
2023-05-08T16:40:09.621Z,19.20
2023-05-08T16:42:36.871Z,19.10
2023-05-08T16:45:07.654Z,19.10
2023-05-08T16:47:34.895Z,19.00
2023-05-08T16:50:01.553Z,19.00
2023-05-08T16:52:28.464Z,19.10
2023-05-08T16:54:55.154Z,19.10
2023-05-08T16:57:21.926Z,19.00
2023-05-08T16:59:48.679Z,18.90
2023-05-08T17:02:19.053Z,19.00
2023-05-08T17:04:47.113Z,19.00
2023-05-08T17:07:14.897Z,19.00
2023-05-08T17:09:41.721Z,19.00
2023-05-08T17:12:08.876Z,19.00
2023-05-08T17:14:36.878Z,19.00
2023-05-08T17:17:03.604Z,19.00
2023-05-08T17:19:30.282Z,18.90
2023-05-08T17:21:59.482Z,18.90
2023-05-08T17:24:26.368Z,19.00
2023-05-08T17:26:53.031Z,19.00
2023-05-08T17:29:19.765Z,18.90
2023-05-08T17:31:46.457Z,18.90
2023-05-08T17:34:13.461Z,18.90
2023-05-08T17:36:40.221Z,18.90
2023-05-08T17:39:06.907Z,18.90
2023-05-08T17:41:33.550Z,18.90
2023-05-08T17:44:00.203Z,18.90
2023-05-08T17:46:26.842Z,18.90
2023-05-08T17:48:53.485Z,18.90
2023-05-08T17:51:20.341Z,18.90
2023-05-08T17:53:46.976Z,18.90
2023-05-08T17:56:13.850Z,18.90
2023-05-08T17:58:40.443Z,18.90
2023-05-08T18:01:07.413Z,18.90
2023-05-08T18:03:34.050Z,18.90
2023-05-08T18:06:00.636Z,18.80
2023-05-08T18:08:27.296Z,18.80
2023-05-08T18:10:53.922Z,18.80
2023-05-08T18:13:20.654Z,18.90
2023-05-08T18:15:47.390Z,18.80
2023-05-08T18:18:14.106Z,18.80
2023-05-08T18:20:40.689Z,18.80
2023-05-08T18:23:07.420Z,18.80
2023-05-08T18:25:35.742Z,18.80
2023-05-08T18:28:02.592Z,18.80
2023-05-08T18:30:29.375Z,18.80
2023-05-08T18:32:55.986Z,18.70
2023-05-08T18:35:22.638Z,18.70
2023-05-08T18:37:51.982Z,18.70
2023-05-08T18:40:18.627Z,18.70
2023-05-08T18:42:45.280Z,18.70
2023-05-08T18:45:12.127Z,18.70
2023-05-08T18:47:39.108Z,18.70
2023-05-08T18:50:06.326Z,18.70
2023-05-08T18:52:33.106Z,18.70
2023-05-08T18:54:59.771Z,18.70
2023-05-08T18:57:26.545Z,18.60
2023-05-08T18:59:53.219Z,18.60
2023-05-08T19:02:19.967Z,18.60
2023-05-08T19:04:46.590Z,18.70
2023-05-08T19:07:13.248Z,18.60
2023-05-08T19:09:39.842Z,18.60
2023-05-08T19:12:06.513Z,18.60
2023-05-08T19:14:33.143Z,18.60
2023-05-08T19:16:59.816Z,18.60
2023-05-08T19:19:27.441Z,18.60
2023-05-08T19:21:54.051Z,18.60
2023-05-08T19:24:21.090Z,18.60
2023-05-08T19:26:47.733Z,18.60
2023-05-08T19:29:14.349Z,18.50
2023-05-08T19:31:41.173Z,18.50
2023-05-08T19:34:07.930Z,18.50
2023-05-08T19:36:36.792Z,18.50
2023-05-08T19:42:48.939Z,18.50
2023-05-08T19:45:24.634Z,18.50
2023-05-08T19:47:56.868Z,18.50
2023-05-08T19:50:46.101Z,18.50
2023-05-08T19:53:21.510Z,18.40
2023-05-08T19:55:49.326Z,18.40
2023-05-08T19:58:17.414Z,18.40
2023-05-08T20:00:51.000Z,18.40
2023-05-08T20:03:18.274Z,18.40
2023-05-08T20:05:45.015Z,18.40
2023-05-08T20:08:11.682Z,18.30
2023-05-08T20:10:38.446Z,18.30
2023-05-08T20:13:05.507Z,18.30
2023-05-08T20:15:32.207Z,18.30
2023-05-08T20:17:59.620Z,18.30
2023-05-08T20:20:27.141Z,18.30
2023-05-08T20:22:53.738Z,18.30
2023-05-08T20:25:20.397Z,18.30
2023-05-08T20:27:47.103Z,18.30
2023-05-08T20:30:14.043Z,18.30
2023-05-08T20:32:41.070Z,18.20
2023-05-08T20:35:08.298Z,18.20
2023-05-08T20:37:34.932Z,18.20
2023-05-08T20:40:04.639Z,18.20
2023-05-08T20:42:31.238Z,18.20
2023-05-08T20:44:57.842Z,18.20
2023-05-08T20:47:24.491Z,18.20
2023-05-08T20:49:51.112Z,18.20
2023-05-08T20:52:17.744Z,18.20
2023-05-08T20:54:45.411Z,18.20
2023-05-08T20:57:12.891Z,18.10
2023-05-08T20:59:39.507Z,18.10
2023-05-08T21:02:06.188Z,18.10
2023-05-08T21:04:32.785Z,18.10
2023-05-08T21:06:59.437Z,18.10
2023-05-08T21:09:26.070Z,18.10
2023-05-08T21:11:52.689Z,18.10
2023-05-08T21:14:19.288Z,18.10
2023-05-08T21:16:46.045Z,18.00
2023-05-08T21:19:17.162Z,18.10
2023-05-08T21:21:44.801Z,18.10
2023-05-08T21:24:11.599Z,18.00
2023-05-08T21:26:38.198Z,18.00
2023-05-08T21:29:05.146Z,18.00
2023-05-08T21:31:32.739Z,18.00
2023-05-08T21:33:59.366Z,18.00
2023-05-08T21:36:25.984Z,18.00
2023-05-08T21:38:52.778Z,18.00
2023-05-08T21:41:19.480Z,17.90
2023-05-08T21:43:46.129Z,17.90
2023-05-08T21:46:12.749Z,17.90
2023-05-08T21:48:39.351Z,17.90
2023-05-08T21:51:06.447Z,17.90
2023-05-08T21:53:33.194Z,17.90
2023-05-08T21:56:00.035Z,17.90
2023-05-08T21:58:26.644Z,17.90
2023-05-08T22:00:53.280Z,17.90
2023-05-08T22:03:20.019Z,17.90
2023-05-08T22:05:46.816Z,17.90
2023-05-08T22:08:13.468Z,17.90
2023-05-08T22:10:40.445Z,17.90
2023-05-08T22:13:07.401Z,17.80
2023-05-08T22:15:34.287Z,17.80
2023-05-08T22:18:02.763Z,17.70
2023-05-08T22:20:30.187Z,17.70
2023-05-08T22:22:56.898Z,17.70
2023-05-08T22:25:25.034Z,17.70
2023-05-08T22:27:51.722Z,17.70
2023-05-08T22:30:18.410Z,17.70
2023-05-08T22:32:51.764Z,17.60
2023-05-08T22:35:19.248Z,17.60
2023-05-08T22:37:45.804Z,17.50
2023-05-08T22:40:12.970Z,17.50
2023-05-08T22:42:39.969Z,17.50
2023-05-08T22:45:07.219Z,17.50
2023-05-08T22:47:34.979Z,17.60
2023-05-08T22:50:02.242Z,17.60
2023-05-08T22:52:28.917Z,17.60
2023-05-08T22:54:55.486Z,17.60
2023-05-08T22:57:22.068Z,17.60
2023-05-08T22:59:48.676Z,17.60
2023-05-08T23:02:15.283Z,17.50
2023-05-08T23:04:41.931Z,17.50
2023-05-08T23:07:08.596Z,17.50
2023-05-08T23:09:35.179Z,17.40
2023-05-08T23:12:01.788Z,17.40
2023-05-08T23:14:28.453Z,17.40
2023-05-08T23:16:55.094Z,17.40
2023-05-08T23:19:21.778Z,17.40
2023-05-08T23:21:48.584Z,17.40
2023-05-08T23:24:15.267Z,17.40
2023-05-08T23:26:42.310Z,17.40
2023-05-08T23:29:08.958Z,17.40
2023-05-08T23:31:35.599Z,17.40
2023-05-08T23:34:02.238Z,17.30
2023-05-08T23:36:28.859Z,17.30
2023-05-08T23:38:55.466Z,17.30
2023-05-08T23:41:22.071Z,17.30
2023-05-08T23:43:48.701Z,17.30
2023-05-08T23:46:15.810Z,17.20
2023-05-08T23:48:42.523Z,17.30
2023-05-08T23:51:09.114Z,17.30
2023-05-08T23:53:35.788Z,17.20
2023-05-08T23:56:02.530Z,17.10
2023-05-08T23:58:29.150Z,17.10
